sensor_id;sensor_type;location;lat;lon;timestamp;pressure;altitude;pressure_sealevel;temperature;humidity
11682;BME280;5897;42.640;23.310;2023-08-17T00:02:15;94026.38;;;22.71;71.68
11682;BME280;5897;42.640;23.310;2023-08-17T00:04:41;94027.88;;;22.66;73.10
11682;BME280;5897;42.640;23.310;2023-08-17T00:07:08;94030.13;;;22.57;73.39
11682;BME280;5897;42.640;23.310;2023-08-17T00:09:35;94021.88;;;22.57;73.97
11682;BME280;5897;42.640;23.310;2023-08-17T00:12:02;94027.38;;;22.46;75.09
11682;BME280;5897;42.640;23.310;2023-08-17T00:14:29;94021.09;;;22.40;75.25
11682;BME280;5897;42.640;23.310;2023-08-17T00:16:56;94030.84;;;22.41;75.56
11682;BME280;5897;42.640;23.310;2023-08-17T00:19:24;94023.63;;;22.49;74.86
11682;BME280;5897;42.640;23.310;2023-08-17T00:21:51;94021.88;;;22.46;74.65
11682;BME280;5897;42.640;23.310;2023-08-17T00:24:18;94027.13;;;22.44;74.38
11682;BME280;5897;42.640;23.310;2023-08-17T00:26:45;94027.63;;;22.53;73.63
11682;BME280;5897;42.640;23.310;2023-08-17T00:29:12;94032.63;;;22.60;72.78
11682;BME280;5897;42.640;23.310;2023-08-17T00:31:40;94030.88;;;22.57;72.02
11682;BME280;5897;42.640;23.310;2023-08-17T00:34:07;94023.59;;;22.27;73.88
11682;BME280;5897;42.640;23.310;2023-08-17T00:36:35;94027.34;;;22.40;72.61
11682;BME280;5897;42.640;23.310;2023-08-17T00:39:02;94027.56;;;22.26;73.69
11682;BME280;5897;42.640;23.310;2023-08-17T00:41:29;94028.59;;;22.34;72.96
11682;BME280;5897;42.640;23.310;2023-08-17T00:43:56;94023.84;;;22.40;72.08
11682;BME280;5897;42.640;23.310;2023-08-17T00:46:23;93997.03;;;22.13;72.06
11682;BME280;5897;42.640;23.310;2023-08-17T00:48:51;94015.56;;;22.34;71.42
11682;BME280;5897;42.640;23.310;2023-08-17T00:51:17;94021.63;;;22.44;69.67
11682;BME280;5897;42.640;23.310;2023-08-17T00:53:47;94015.56;;;22.34;69.09
11682;BME280;5897;42.640;23.310;2023-08-17T00:56:14;94012.81;;;22.29;68.69
11682;BME280;5897;42.640;23.310;2023-08-17T00:58:42;94013.56;;;22.35;67.42
11682;BME280;5897;42.640;23.310;2023-08-17T01:01:09;94013.06;;;22.31;67.45
11682;BME280;5897;42.640;23.310;2023-08-17T01:03:36;94009.56;;;22.30;66.58
11682;BME280;5897;42.640;23.310;2023-08-17T01:06:04;93997.03;;;22.13;66.82
11682;BME280;5897;42.640;23.310;2023-08-17T01:08:30;94010.06;;;22.23;66.86
11682;BME280;5897;42.640;23.310;2023-08-17T01:11:04;94015.09;;;22.30;65.96
11682;BME280;5897;42.640;23.310;2023-08-17T01:13:35;94008.50;;;22.00;66.51
11682;BME280;5897;42.640;23.310;2023-08-17T01:16:05;94004.78;;;22.09;65.29
11682;BME280;5897;42.640;23.310;2023-08-17T01:18:37;94012.78;;;22.07;65.65
11682;BME280;5897;42.640;23.310;2023-08-17T01:21:08;94006.31;;;22.10;65.98
11682;BME280;5897;42.640;23.310;2023-08-17T01:23:37;93999.53;;;22.05;65.51
11682;BME280;5897;42.640;23.310;2023-08-17T01:26:04;93999.78;;;22.07;63.92
11682;BME280;5897;42.640;23.310;2023-08-17T01:28:31;94001.53;;;22.05;64.73
11682;BME280;5897;42.640;23.310;2023-08-17T01:31:00;93998.47;;;21.81;65.84
11682;BME280;5897;42.640;23.310;2023-08-17T01:33:35;93997.75;;;21.91;64.19
11682;BME280;5897;42.640;23.310;2023-08-17T01:36:08;94004.28;;;22.05;63.14
11682;BME280;5897;42.640;23.310;2023-08-17T01:38:40;93991.78;;;22.04;63.71
11682;BME280;5897;42.640;23.310;2023-08-17T01:41:09;94002.28;;;22.11;62.43
11682;BME280;5897;42.640;23.310;2023-08-17T01:43:38;93999.53;;;22.16;61.58
11682;BME280;5897;42.640;23.310;2023-08-17T01:46:06;93997.78;;;22.08;61.15
11682;BME280;5897;42.640;23.310;2023-08-17T01:48:33;93999.78;;;22.13;59.56
11682;BME280;5897;42.640;23.310;2023-08-17T01:51:00;93998.81;;;22.27;57.58
11682;BME280;5897;42.640;23.310;2023-08-17T01:53:27;94001.31;;;22.19;57.40
11682;BME280;5897;42.640;23.310;2023-08-17T01:55:55;94004.81;;;22.31;54.90
11682;BME280;5897;42.640;23.310;2023-08-17T01:58:22;93994.56;;;22.31;55.59
11682;BME280;5897;42.640;23.310;2023-08-17T02:00:48;93995.28;;;22.32;55.31
11682;BME280;5897;42.640;23.310;2023-08-17T02:03:15;93993.31;;;22.27;56.07
11682;BME280;5897;42.640;23.310;2023-08-17T02:05:44;93996.56;;;22.31;56.37
11682;BME280;5897;42.640;23.310;2023-08-17T02:08:10;93993.03;;;22.14;60.67
11682;BME280;5897;42.640;23.310;2023-08-17T02:10:37;93989.28;;;22.06;60.35
11682;BME280;5897;42.640;23.310;2023-08-17T02:13:05;93998.28;;;22.12;60.40
11682;BME280;5897;42.640;23.310;2023-08-17T02:15:32;93999.28;;;22.09;60.62
11682;BME280;5897;42.640;23.310;2023-08-17T02:18:04;93997.53;;;22.11;60.82
11682;BME280;5897;42.640;23.310;2023-08-17T02:20:31;93995.78;;;22.08;61.36
11682;BME280;5897;42.640;23.310;2023-08-17T02:22:57;93987.47;;;21.81;63.13
11682;BME280;5897;42.640;23.310;2023-08-17T02:25:24;93988.25;;;21.87;62.80
11682;BME280;5897;42.640;23.310;2023-08-17T02:27:51;93987.97;;;21.79;63.43
11682;BME280;5897;42.640;23.310;2023-08-17T02:30:20;93990.22;;;21.70;64.15
11682;BME280;5897;42.640;23.310;2023-08-17T02:32:46;93989.38;;;21.58;64.76
11682;BME280;5897;42.640;23.310;2023-08-17T02:35:13;93988.16;;;21.65;64.50
11682;BME280;5897;42.640;23.310;2023-08-17T02:37:40;93994.59;;;21.51;65.50
11682;BME280;5897;42.640;23.310;2023-08-17T02:40:08;93988.28;;;21.28;66.62
11682;BME280;5897;42.640;23.310;2023-08-17T02:42:37;93985.53;;;21.34;67.11
11682;BME280;5897;42.640;23.310;2023-08-17T02:45:06;93989.81;;;21.40;67.13
11682;BME280;5897;42.640;23.310;2023-08-17T02:47:34;93994.03;;;21.30;67.01
11682;BME280;5897;42.640;23.310;2023-08-17T02:50:01;93988.50;;;21.25;67.25
11682;BME280;5897;42.640;23.310;2023-08-17T02:52:27;93992.47;;;21.24;67.50
11682;BME280;5897;42.640;23.310;2023-08-17T02:54:54;93997.25;;;21.23;67.45
11682;BME280;5897;42.640;23.310;2023-08-17T02:57:21;93985.97;;;21.16;67.63
11682;BME280;5897;42.640;23.310;2023-08-17T02:59:48;93973.66;;;21.06;67.90
11682;BME280;5897;42.640;23.310;2023-08-17T03:02:15;93985.72;;;21.14;68.57
11682;BME280;5897;42.640;23.310;2023-08-17T03:04:43;93990.63;;;20.99;68.92
11682;BME280;5897;42.640;23.310;2023-08-17T03:07:09;93987.69;;;21.08;67.71
11682;BME280;5897;42.640;23.310;2023-08-17T03:09:39;93992.94;;;21.11;66.31
11682;BME280;5897;42.640;23.310;2023-08-17T03:12:06;93980.00;;;21.23;64.51
11682;BME280;5897;42.640;23.310;2023-08-17T03:14:36;93985.25;;;21.21;65.08
11682;BME280;5897;42.640;23.310;2023-08-17T03:17:02;93987.69;;;21.13;65.11
11682;BME280;5897;42.640;23.310;2023-08-17T03:19:29;93985.97;;;21.16;63.78
11682;BME280;5897;42.640;23.310;2023-08-17T03:21:57;93993.72;;;21.17;64.24
11682;BME280;5897;42.640;23.310;2023-08-17T03:24:24;93991.16;;;21.03;64.56
11682;BME280;5897;42.640;23.310;2023-08-17T03:26:51;93988.41;;;21.03;64.25
11682;BME280;5897;42.640;23.310;2023-08-17T03:29:17;93989.84;;;20.93;64.51
11682;BME280;5897;42.640;23.310;2023-08-17T03:31:44;93983.09;;;20.94;63.91
11682;BME280;5897;42.640;23.310;2023-08-17T03:34:11;93986.59;;;20.94;65.02
11682;BME280;5897;42.640;23.310;2023-08-17T03:36:38;93994.84;;;21.00;64.16
11682;BME280;5897;42.640;23.310;2023-08-17T03:39:06;93992.31;;;20.91;64.26
11682;BME280;5897;42.640;23.310;2023-08-17T03:41:33;94003.94;;;20.75;64.43
11682;BME280;5897;42.640;23.310;2023-08-17T03:44:02;93995.75;;;20.86;64.37
11682;BME280;5897;42.640;23.310;2023-08-17T03:46:29;94004.81;;;20.92;63.79
11682;BME280;5897;42.640;23.310;2023-08-17T03:48:55;94000.81;;;20.93;63.38
11682;BME280;5897;42.640;23.310;2023-08-17T03:51:22;94007.56;;;20.97;62.64
11682;BME280;5897;42.640;23.310;2023-08-17T03:53:49;94010.09;;;21.01;62.69
11682;BME280;5897;42.640;23.310;2023-08-17T03:56:17;94006.91;;;21.08;62.84
11682;BME280;5897;42.640;23.310;2023-08-17T03:58:44;94013.44;;;21.16;61.92
11682;BME280;5897;42.640;23.310;2023-08-17T04:01:10;94012.94;;;21.17;62.39
11682;BME280;5897;42.640;23.310;2023-08-17T04:03:38;94014.97;;;21.22;62.73
11682;BME280;5897;42.640;23.310;2023-08-17T04:06:05;94015.75;;;21.28;62.20
11682;BME280;5897;42.640;23.310;2023-08-17T04:08:32;94019.78;;;21.38;62.10
11682;BME280;5897;42.640;23.310;2023-08-17T04:10:59;94016.81;;;21.42;61.48
11682;BME280;5897;42.640;23.310;2023-08-17T04:13:27;94018.09;;;21.46;61.82
11682;BME280;5897;42.640;23.310;2023-08-17T04:15:54;94020.09;;;21.51;60.90
11682;BME280;5897;42.640;23.310;2023-08-17T04:18:21;94016.63;;;21.56;60.65
11682;BME280;5897;42.640;23.310;2023-08-17T04:20:47;94021.59;;;21.58;60.29
11682;BME280;5897;42.640;23.310;2023-08-17T04:23:13;94008.88;;;21.55;60.54
11682;BME280;5897;42.640;23.310;2023-08-17T04:25:40;94017.88;;;21.66;60.25
11682;BME280;5897;42.640;23.310;2023-08-17T04:28:08;94009.72;;;21.72;60.47
11682;BME280;5897;42.640;23.310;2023-08-17T04:30:37;94005.72;;;21.84;59.76
11682;BME280;5897;42.640;23.310;2023-08-17T04:33:04;94009.50;;;21.86;60.14
11682;BME280;5897;42.640;23.310;2023-08-17T04:35:33;94004.50;;;21.90;60.76
11682;BME280;5897;42.640;23.310;2023-08-17T04:38:00;94011.25;;;21.95;59.87
11682;BME280;5897;42.640;23.310;2023-08-17T04:40:27;94007.28;;;22.07;59.43
11682;BME280;5897;42.640;23.310;2023-08-17T04:42:53;94004.28;;;22.10;59.79
11682;BME280;5897;42.640;23.310;2023-08-17T04:45:20;94001.31;;;22.25;59.76
11682;BME280;5897;42.640;23.310;2023-08-17T04:47:48;94001.06;;;22.34;59.52
11682;BME280;5897;42.640;23.310;2023-08-17T04:50:15;94002.84;;;22.48;59.35
11682;BME280;5897;42.640;23.310;2023-08-17T04:52:43;93992.84;;;22.56;58.75
11682;BME280;5897;42.640;23.310;2023-08-17T04:55:10;93999.56;;;22.66;59.12
11682;BME280;5897;42.640;23.310;2023-08-17T04:57:36;93987.81;;;22.71;58.32
11682;BME280;5897;42.640;23.310;2023-08-17T05:00:04;93994.06;;;22.82;59.68
11682;BME280;5897;42.640;23.310;2023-08-17T05:02:34;94003.56;;;22.98;59.06
11682;BME280;5897;42.640;23.310;2023-08-17T05:05:04;94002.81;;;23.03;60.34
11682;BME280;5897;42.640;23.310;2023-08-17T05:07:31;94003.28;;;23.12;59.94
11682;BME280;5897;42.640;23.310;2023-08-17T05:09:58;94003.78;;;23.22;60.37
11682;BME280;5897;42.640;23.310;2023-08-17T05:12:25;93996.75;;;23.32;60.87
11682;BME280;5897;42.640;23.310;2023-08-17T05:14:52;94002.44;;;23.45;59.52
11682;BME280;5897;42.640;23.310;2023-08-17T05:17:19;94003.19;;;23.51;59.60
11682;BME280;5897;42.640;23.310;2023-08-17T05:19:48;94000.41;;;23.51;59.72
11682;BME280;5897;42.640;23.310;2023-08-17T05:22:16;94002.88;;;23.65;59.03
11682;BME280;5897;42.640;23.310;2023-08-17T05:24:43;94002.09;;;23.76;59.66
11682;BME280;5897;42.640;23.310;2023-08-17T05:27:10;94006.06;;;23.86;58.54
11682;BME280;5897;42.640;23.310;2023-08-17T05:29:37;94007.75;;;23.94;57.05
11682;BME280;5897;42.640;23.310;2023-08-17T05:32:04;94013.47;;;24.07;56.80
11682;BME280;5897;42.640;23.310;2023-08-17T05:34:31;94018.50;;;24.09;59.39
11682;BME280;5897;42.640;23.310;2023-08-17T05:36:58;94014.47;;;24.10;61.44
11682;BME280;5897;42.640;23.310;2023-08-17T05:39:26;94006.91;;;24.16;62.67
11682;BME280;5897;42.640;23.310;2023-08-17T05:41:53;94009.66;;;24.16;63.50
11682;BME280;5897;42.640;23.310;2023-08-17T05:44:20;94007.63;;;24.22;64.13
11682;BME280;5897;42.640;23.310;2023-08-17T05:46:46;94009.06;;;24.28;63.50
11682;BME280;5897;42.640;23.310;2023-08-17T05:49:14;94013.06;;;24.33;63.54
11682;BME280;5897;42.640;23.310;2023-08-17T05:51:40;94016.06;;;24.35;63.93
11682;BME280;5897;42.640;23.310;2023-08-17T05:54:07;94012.78;;;24.36;63.60
11682;BME280;5897;42.640;23.310;2023-08-17T05:56:35;94019.53;;;24.41;64.04
11682;BME280;5897;42.640;23.310;2023-08-17T05:59:02;94020.72;;;24.51;63.65
11682;BME280;5897;42.640;23.310;2023-08-17T06:01:30;94027.19;;;24.59;63.42
11682;BME280;5897;42.640;23.310;2023-08-17T06:03:56;94022.63;;;24.67;63.25
11682;BME280;5897;42.640;23.310;2023-08-17T06:06:23;94022.91;;;24.63;62.73
11682;BME280;5897;42.640;23.310;2023-08-17T06:08:51;94024.00;;;24.49;63.81
11682;BME280;5897;42.640;23.310;2023-08-17T06:11:18;94028.22;;;24.56;63.79
11682;BME280;5897;42.640;23.310;2023-08-17T06:13:46;94034.47;;;24.62;64.51
11682;BME280;5897;42.640;23.310;2023-08-17T06:16:13;94028.94;;;24.62;63.95
11682;BME280;5897;42.640;23.310;2023-08-17T06:18:40;94026.38;;;24.69;63.58
11682;BME280;5897;42.640;23.310;2023-08-17T06:21:07;94030.84;;;24.78;62.19
11682;BME280;5897;42.640;23.310;2023-08-17T06:23:33;94030.56;;;24.81;61.28
11682;BME280;5897;42.640;23.310;2023-08-17T06:26:00;94008.19;;;24.79;62.77
11682;BME280;5897;42.640;23.310;2023-08-17T06:28:27;94028.31;;;25.04;61.38
11682;BME280;5897;42.640;23.310;2023-08-17T06:30:55;94028.28;;;25.09;60.28
11682;BME280;5897;42.640;23.310;2023-08-17T06:33:22;94021.66;;;25.18;59.29
11682;BME280;5897;42.640;23.310;2023-08-17T06:35:49;94031.78;;;25.10;59.87
11682;BME280;5897;42.640;23.310;2023-08-17T06:38:16;94037.94;;;25.27;58.67
11682;BME280;5897;42.640;23.310;2023-08-17T06:40:43;94027.94;;;25.18;57.53
11682;BME280;5897;42.640;23.310;2023-08-17T06:43:10;94032.53;;;25.40;58.22
11682;BME280;5897;42.640;23.310;2023-08-17T06:45:36;94026.63;;;25.49;57.72
11682;BME280;5897;42.640;23.310;2023-08-17T06:48:05;94032.97;;;25.44;58.78
11682;BME280;5897;42.640;23.310;2023-08-17T06:50:32;94031.47;;;25.43;58.22
11682;BME280;5897;42.640;23.310;2023-08-17T06:52:59;94032.25;;;25.43;57.19
11682;BME280;5897;42.640;23.310;2023-08-17T06:55:26;94040.81;;;25.64;56.47
11682;BME280;5897;42.640;23.310;2023-08-17T06:57:52;94036.00;;;25.64;57.12
11682;BME280;5897;42.640;23.310;2023-08-17T07:00:20;94037.69;;;25.73;56.79
11682;BME280;5897;42.640;23.310;2023-08-17T07:02:47;94030.34;;;25.75;56.89
11682;BME280;5897;42.640;23.310;2023-08-17T07:05:15;94019.22;;;25.81;57.57
11682;BME280;5897;42.640;23.310;2023-08-17T07:07:43;94032.56;;;25.82;56.98
11682;BME280;5897;42.640;23.310;2023-08-17T07:10:10;94030.47;;;25.88;57.14
11682;BME280;5897;42.640;23.310;2023-08-17T07:12:37;94023.16;;;25.91;55.82
11682;BME280;5897;42.640;23.310;2023-08-17T07:15:06;94031.75;;;26.06;55.83
11682;BME280;5897;42.640;23.310;2023-08-17T07:17:33;94018.31;;;25.97;54.60
11682;BME280;5897;42.640;23.310;2023-08-17T07:20:02;94030.28;;;26.23;51.61
11682;BME280;5897;42.640;23.310;2023-08-17T07:22:30;94029.75;;;26.25;51.84
11682;BME280;5897;42.640;23.310;2023-08-17T07:24:57;94030.34;;;26.36;52.52
11682;BME280;5897;42.640;23.310;2023-08-17T07:27:24;94028.31;;;26.55;52.71
11682;BME280;5897;42.640;23.310;2023-08-17T07:29:51;94026.19;;;26.61;51.85
11682;BME280;5897;42.640;23.310;2023-08-17T07:32:18;94020.16;;;26.76;50.55
11682;BME280;5897;42.640;23.310;2023-08-17T07:34:46;94019.78;;;26.85;49.23
11682;BME280;5897;42.640;23.310;2023-08-17T07:37:13;94014.75;;;26.83;47.90
11682;BME280;5897;42.640;23.310;2023-08-17T07:39:41;94016.19;;;27.03;48.13
11682;BME280;5897;42.640;23.310;2023-08-17T07:42:08;94022.19;;;27.07;47.48
11682;BME280;5897;42.640;23.310;2023-08-17T07:44:35;94011.91;;;27.20;47.59
11682;BME280;5897;42.640;23.310;2023-08-17T07:47:02;94010.22;;;27.30;46.83
11682;BME280;5897;42.640;23.310;2023-08-17T07:49:29;94028.88;;;27.30;46.86
11682;BME280;5897;42.640;23.310;2023-08-17T07:51:56;94017.44;;;27.33;45.75
11682;BME280;5897;42.640;23.310;2023-08-17T07:54:23;94018.72;;;27.45;45.43
11682;BME280;5897;42.640;23.310;2023-08-17T07:56:51;94015.88;;;27.51;46.63
11682;BME280;5897;42.640;23.310;2023-08-17T07:59:18;94012.78;;;27.54;45.96
11682;BME280;5897;42.640;23.310;2023-08-17T08:01:45;94011.59;;;27.63;45.96
11682;BME280;5897;42.640;23.310;2023-08-17T08:04:11;94011.91;;;27.72;45.97
11682;BME280;5897;42.640;23.310;2023-08-17T08:06:38;94005.19;;;27.68;45.68
11682;BME280;5897;42.640;23.310;2023-08-17T08:09:05;93999.19;;;27.77;46.89
11682;BME280;5897;42.640;23.310;2023-08-17T08:11:32;93999.41;;;27.66;47.70
11682;BME280;5897;42.640;23.310;2023-08-17T08:14:00;93998.78;;;27.86;48.18
11682;BME280;5897;42.640;23.310;2023-08-17T08:16:27;93996.94;;;28.01;48.27
11682;BME280;5897;42.640;23.310;2023-08-17T08:18:55;93999.63;;;28.07;47.28
11682;BME280;5897;42.640;23.310;2023-08-17T08:21:22;93999.34;;;28.18;48.40
11682;BME280;5897;42.640;23.310;2023-08-17T08:23:49;93998.69;;;28.38;48.93
11682;BME280;5897;42.640;23.310;2023-08-17T08:26:16;94002.50;;;28.35;47.44
11682;BME280;5897;42.640;23.310;2023-08-17T08:28:42;93999.31;;;28.44;46.68
11682;BME280;5897;42.640;23.310;2023-08-17T08:31:11;93998.19;;;28.60;45.36
11682;BME280;5897;42.640;23.310;2023-08-17T08:33:37;93996.47;;;28.77;44.79
11682;BME280;5897;42.640;23.310;2023-08-17T08:36:04;93999.75;;;28.68;45.89
11682;BME280;5897;42.640;23.310;2023-08-17T08:38:31;93994.09;;;28.61;46.43
11682;BME280;5897;42.640;23.310;2023-08-17T08:40:58;94000.69;;;28.71;45.96
11682;BME280;5897;42.640;23.310;2023-08-17T08:43:25;93999.94;;;28.91;45.87
11682;BME280;5897;42.640;23.310;2023-08-17T08:45:52;93999.50;;;29.00;44.27
11682;BME280;5897;42.640;23.310;2023-08-17T08:48:26;93992.56;;;29.14;45.10
11682;BME280;5897;42.640;23.310;2023-08-17T08:50:54;94000.88;;;29.34;44.94
11682;BME280;5897;42.640;23.310;2023-08-17T08:53:28;93990.28;;;29.53;43.66
11682;BME280;5897;42.640;23.310;2023-08-17T08:55:58;93991.09;;;29.69;43.83
11682;BME280;5897;42.640;23.310;2023-08-17T08:58:26;93992.88;;;29.87;42.92
11682;BME280;5897;42.640;23.310;2023-08-17T09:00:54;93991.88;;;29.77;42.78
11682;BME280;5897;42.640;23.310;2023-08-17T09:03:23;93975.75;;;29.83;42.80
11682;BME280;5897;42.640;23.310;2023-08-17T09:05:51;93985.63;;;29.91;42.68
11682;BME280;5897;42.640;23.310;2023-08-17T09:08:21;93986.47;;;30.07;41.66
11682;BME280;5897;42.640;23.310;2023-08-17T09:10:48;93972.41;;;30.20;41.08
11682;BME280;5897;42.640;23.310;2023-08-17T09:13:15;93980.28;;;30.44;41.45
11682;BME280;5897;42.640;23.310;2023-08-17T09:15:42;93968.72;;;30.25;41.99
11682;BME280;5897;42.640;23.310;2023-08-17T09:18:10;93961.41;;;30.65;41.91
11682;BME280;5897;42.640;23.310;2023-08-17T09:20:42;93964.91;;;30.65;40.19
11682;BME280;5897;42.640;23.310;2023-08-17T09:23:11;93960.84;;;30.74;40.82
11682;BME280;5897;42.640;23.310;2023-08-17T09:25:40;93930.56;;;31.00;40.33
11682;BME280;5897;42.640;23.310;2023-08-17T09:28:08;93959.56;;;31.27;38.34
11682;BME280;5897;42.640;23.310;2023-08-17T09:30:50;93965.13;;;30.90;39.47
11682;BME280;5897;42.640;23.310;2023-08-17T09:33:17;93947.66;;;30.97;39.40
11682;BME280;5897;42.640;23.310;2023-08-17T09:35:46;93956.59;;;31.18;37.77
11682;BME280;5897;42.640;23.310;2023-08-17T09:38:12;93938.34;;;31.39;35.63
11682;BME280;5897;42.640;23.310;2023-08-17T09:40:39;93941.66;;;31.53;36.71
11682;BME280;5897;42.640;23.310;2023-08-17T09:43:06;93932.94;;;31.41;36.78
11682;BME280;5897;42.640;23.310;2023-08-17T09:45:33;93937.22;;;31.50;36.34
11682;BME280;5897;42.640;23.310;2023-08-17T09:48:00;93935.91;;;31.51;36.02
11682;BME280;5897;42.640;23.310;2023-08-17T09:50:27;93934.03;;;31.61;38.73
11682;BME280;5897;42.640;23.310;2023-08-17T09:52:55;93925.25;;;31.72;36.02
11682;BME280;5897;42.640;23.310;2023-08-17T09:55:22;93929.16;;;32.16;34.59
11682;BME280;5897;42.640;23.310;2023-08-17T09:57:50;93925.75;;;32.32;33.19
11682;BME280;5897;42.640;23.310;2023-08-17T10:00:17;93922.94;;;32.64;33.29
11682;BME280;5897;42.640;23.310;2023-08-17T10:02:45;93931.03;;;32.85;31.94
11682;BME280;5897;42.640;23.310;2023-08-17T10:05:18;93916.44;;;32.62;31.38
11682;BME280;5897;42.640;23.310;2023-08-17T10:07:47;93923.34;;;32.61;32.93
11682;BME280;5897;42.640;23.310;2023-08-17T10:10:21;93916.75;;;32.98;31.26
11682;BME280;5897;42.640;23.310;2023-08-17T10:12:53;93915.53;;;33.33;30.86
11682;BME280;5897;42.640;23.310;2023-08-17T10:15:23;93920.81;;;33.46;30.95
11682;BME280;5897;42.640;23.310;2023-08-17T10:17:57;93905.53;;;33.22;31.18
11682;BME280;5897;42.640;23.310;2023-08-17T10:20:26;93908.94;;;33.38;30.47
11682;BME280;5897;42.640;23.310;2023-08-17T10:22:59;93907.63;;;33.56;31.36
11682;BME280;5897;42.640;23.310;2023-08-17T10:25:30;93916.81;;;33.90;29.53
11682;BME280;5897;42.640;23.310;2023-08-17T10:27:58;93915.06;;;33.95;28.72
11682;BME280;5897;42.640;23.310;2023-08-17T10:30:25;93915.19;;;34.14;28.82
11682;BME280;5897;42.640;23.310;2023-08-17T10:32:53;93910.06;;;34.20;28.90
11682;BME280;5897;42.640;23.310;2023-08-17T10:35:20;93915.41;;;33.99;29.17
11682;BME280;5897;42.640;23.310;2023-08-17T10:37:47;93903.81;;;34.29;28.70
11682;BME280;5897;42.640;23.310;2023-08-17T10:40:14;93909.63;;;34.40;29.06
11682;BME280;5897;42.640;23.310;2023-08-17T10:42:43;93907.94;;;34.54;27.92
11682;BME280;5897;42.640;23.310;2023-08-17T10:45:28;93893.88;;;34.45;29.15
11682;BME280;5897;42.640;23.310;2023-08-17T10:48:27;93903.38;;;34.85;27.13
11682;BME280;5897;42.640;23.310;2023-08-17T10:51:04;93900.53;;;34.49;28.32
11682;BME280;5897;42.640;23.310;2023-08-17T10:53:36;93897.13;;;34.51;28.19
11682;BME280;5897;42.640;23.310;2023-08-17T10:56:07;93901.75;;;34.56;27.90
11682;BME280;5897;42.640;23.310;2023-08-17T10:58:36;93892.09;;;34.76;28.23
11682;BME280;5897;42.640;23.310;2023-08-17T11:01:03;93891.47;;;35.04;27.83
11682;BME280;5897;42.640;23.310;2023-08-17T11:03:30;93888.75;;;34.60;27.25
11682;BME280;5897;42.640;23.310;2023-08-17T11:06:13;93889.34;;;34.59;26.85
11682;BME280;5897;42.640;23.310;2023-08-17T11:08:52;93881.25;;;34.99;26.85
11682;BME280;5897;42.640;23.310;2023-08-17T11:11:20;93882.72;;;34.64;27.77
11682;BME280;5897;42.640;23.310;2023-08-17T11:13:49;93868.22;;;34.58;27.15
11682;BME280;5897;42.640;23.310;2023-08-17T11:16:17;93887.31;;;35.05;27.63
11682;BME280;5897;42.640;23.310;2023-08-17T11:18:45;93874.84;;;35.25;27.09
11682;BME280;5897;42.640;23.310;2023-08-17T11:21:12;93877.53;;;35.42;26.74
11682;BME280;5897;42.640;23.310;2023-08-17T11:23:41;93881.13;;;35.80;25.89
11682;BME280;5897;42.640;23.310;2023-08-17T11:26:08;93867.94;;;35.92;26.13
11682;BME280;5897;42.640;23.310;2023-08-17T11:28:35;93864.66;;;36.05;25.88
11682;BME280;5897;42.640;23.310;2023-08-17T11:31:06;93862.00;;;35.60;25.20
11682;BME280;5897;42.640;23.310;2023-08-17T11:33:34;93873.72;;;35.11;26.28
11682;BME280;5897;42.640;23.310;2023-08-17T11:36:03;93864.44;;;35.18;26.45
11682;BME280;5897;42.640;23.310;2023-08-17T11:38:31;93855.63;;;35.59;25.95
11682;BME280;5897;42.640;23.310;2023-08-17T11:40:59;93853.72;;;36.00;25.58
11682;BME280;5897;42.640;23.310;2023-08-17T11:43:27;93859.78;;;35.77;25.27
11682;BME280;5897;42.640;23.310;2023-08-17T11:45:54;93860.75;;;35.15;25.81
11682;BME280;5897;42.640;23.310;2023-08-17T11:48:23;93845.28;;;35.52;26.34
11682;BME280;5897;42.640;23.310;2023-08-17T11:50:51;93843.34;;;36.02;25.11
11682;BME280;5897;42.640;23.310;2023-08-17T11:53:20;93856.25;;;35.58;26.95
11682;BME280;5897;42.640;23.310;2023-08-17T11:55:48;93856.84;;;34.92;28.34
11682;BME280;5897;42.640;23.310;2023-08-17T11:58:15;93860.25;;;33.67;30.86
11682;BME280;5897;42.640;23.310;2023-08-17T12:00:43;93856.44;;;33.89;30.17
11682;BME280;5897;42.640;23.310;2023-08-17T12:03:13;93851.44;;;34.14;30.23
11682;BME280;5897;42.640;23.310;2023-08-17T12:05:43;93853.91;;;34.10;30.56
11682;BME280;5897;42.640;23.310;2023-08-17T12:08:10;93859.34;;;34.25;31.28
11682;BME280;5897;42.640;23.310;2023-08-17T12:10:39;93849.34;;;34.32;30.89
11682;BME280;5897;42.640;23.310;2023-08-17T12:13:11;93850.59;;;34.21;30.35
11682;BME280;5897;42.640;23.310;2023-08-17T12:15:37;93846.72;;;33.73;31.78
11682;BME280;5897;42.640;23.310;2023-08-17T12:18:05;93841.53;;;33.87;31.81
11682;BME280;5897;42.640;23.310;2023-08-17T12:20:33;93840.25;;;33.54;31.54
11682;BME280;5897;42.640;23.310;2023-08-17T12:23:02;93847.47;;;33.74;31.82
11682;BME280;5897;42.640;23.310;2023-08-17T12:25:29;93842.59;;;34.18;30.94
11682;BME280;5897;42.640;23.310;2023-08-17T12:27:58;93842.38;;;33.80;31.13
11682;BME280;5897;42.640;23.310;2023-08-17T12:30:26;93840.56;;;33.58;32.98
11682;BME280;5897;42.640;23.310;2023-08-17T12:32:53;93834.97;;;33.41;32.60
11682;BME280;5897;42.640;23.310;2023-08-17T12:35:20;93841.94;;;33.83;31.75
11682;BME280;5897;42.640;23.310;2023-08-17T12:37:50;93840.38;;;33.90;32.37
11682;BME280;5897;42.640;23.310;2023-08-17T12:40:18;93837.00;;;34.18;32.29
11682;BME280;5897;42.640;23.310;2023-08-17T12:42:45;93838.16;;;33.88;31.94
11682;BME280;5897;42.640;23.310;2023-08-17T12:45:14;93839.06;;;33.74;31.69
11682;BME280;5897;42.640;23.310;2023-08-17T12:47:41;93837.41;;;33.71;32.41
11682;BME280;5897;42.640;23.310;2023-08-17T12:50:09;93830.88;;;33.42;33.03
11682;BME280;5897;42.640;23.310;2023-08-17T12:52:45;93838.44;;;33.49;32.41
11682;BME280;5897;42.640;23.310;2023-08-17T12:55:22;93819.97;;;33.46;32.95
11682;BME280;5897;42.640;23.310;2023-08-17T12:57:50;93826.47;;;34.09;32.78
11682;BME280;5897;42.640;23.310;2023-08-17T13:00:17;93843.13;;;34.69;30.94
11682;BME280;5897;42.640;23.310;2023-08-17T13:02:44;93812.34;;;34.79;31.33
11682;BME280;5897;42.640;23.310;2023-08-17T13:05:14;93828.72;;;35.56;30.99